sensor_id;sensor_type;location;lat;lon;timestamp;P1;durP1;ratioP1;P2;durP2;ratioP2
15408;SDS011;7803;48.130;13.788;2023-06-26T00:01:29;7.55;;;6.85;;
15408;SDS011;7803;48.130;13.788;2023-06-26T00:04:31;7.47;;;6.85;;
15408;SDS011;7803;48.130;13.788;2023-06-26T00:07:35;7.30;;;6.60;;
15408;SDS011;7803;48.130;13.788;2023-06-26T00:10:37;7.47;;;6.78;;
15408;SDS011;7803;48.130;13.788;2023-06-26T00:13:41;7.57;;;6.95;;
15408;SDS011;7803;48.130;13.788;2023-06-26T00:16:43;7.75;;;7.03;;
15408;SDS011;7803;48.130;13.788;2023-06-26T00:19:45;7.47;;;6.85;;
15408;SDS011;7803;48.130;13.788;2023-06-26T00:22:47;7.80;;;7.10;;
15408;SDS011;7803;48.130;13.788;2023-06-26T00:25:50;7.90;;;7.20;;
15408;SDS011;7803;48.130;13.788;2023-06-26T00:28:54;7.20;;;6.60;;
15408;SDS011;7803;48.130;13.788;2023-06-26T00:31:56;8.27;;;7.47;;
15408;SDS011;7803;48.130;13.788;2023-06-26T00:34:57;7.70;;;7.10;;
15408;SDS011;7803;48.130;13.788;2023-06-26T00:37:59;7.95;;;7.22;;
15408;SDS011;7803;48.130;13.788;2023-06-26T00:41:01;7.53;;;6.93;;
15408;SDS011;7803;48.130;13.788;2023-06-26T00:44:05;8.50;;;7.55;;
15408;SDS011;7803;48.130;13.788;2023-06-26T00:47:08;7.65;;;6.95;;
15408;SDS011;7803;48.130;13.788;2023-06-26T00:50:11;7.50;;;6.80;;
15408;SDS011;7803;48.130;13.788;2023-06-26T00:53:16;8.60;;;7.80;;
15408;SDS011;7803;48.130;13.788;2023-06-26T00:56:18;8.00;;;7.30;;
15408;SDS011;7803;48.130;13.788;2023-06-26T00:59:22;8.32;;;7.53;;
15408;SDS011;7803;48.130;13.788;2023-06-26T01:02:24;7.82;;;7.13;;
15408;SDS011;7803;48.130;13.788;2023-06-26T01:05:33;8.07;;;7.38;;
15408;SDS011;7803;48.130;13.788;2023-06-26T01:08:35;8.00;;;7.30;;
15408;SDS011;7803;48.130;13.788;2023-06-26T01:11:37;7.80;;;7.10;;
15408;SDS011;7803;48.130;13.788;2023-06-26T01:14:40;8.15;;;7.38;;
15408;SDS011;7803;48.130;13.788;2023-06-26T01:17:42;7.80;;;7.10;;
15408;SDS011;7803;48.130;13.788;2023-06-26T01:20:47;8.13;;;7.32;;
15408;SDS011;7803;48.130;13.788;2023-06-26T01:23:57;8.10;;;7.30;;
15408;SDS011;7803;48.130;13.788;2023-06-26T01:27:07;8.18;;;7.47;;
15408;SDS011;7803;48.130;13.788;2023-06-26T01:30:11;8.60;;;7.68;;
15408;SDS011;7803;48.130;13.788;2023-06-26T01:33:14;8.23;;;7.43;;
15408;SDS011;7803;48.130;13.788;2023-06-26T01:36:17;8.23;;;7.53;;
15408;SDS011;7803;48.130;13.788;2023-06-26T01:39:19;8.52;;;7.72;;
15408;SDS011;7803;48.130;13.788;2023-06-26T01:42:22;7.88;;;7.20;;
15408;SDS011;7803;48.130;13.788;2023-06-26T01:45:26;8.25;;;7.55;;
15408;SDS011;7803;48.130;13.788;2023-06-26T01:48:30;8.50;;;7.68;;
15408;SDS011;7803;48.130;13.788;2023-06-26T01:51:38;7.90;;;7.20;;
15408;SDS011;7803;48.130;13.788;2023-06-26T01:54:46;8.18;;;7.38;;
15408;SDS011;7803;48.130;13.788;2023-06-26T01:57:55;8.27;;;7.57;;
15408;SDS011;7803;48.130;13.788;2023-06-26T02:00:59;8.10;;;7.40;;
15408;SDS011;7803;48.130;13.788;2023-06-26T02:04:01;8.20;;;7.47;;
15408;SDS011;7803;48.130;13.788;2023-06-26T02:07:04;7.88;;;7.18;;
15408;SDS011;7803;48.130;13.788;2023-06-26T02:10:06;9.48;;;7.32;;
15408;SDS011;7803;48.130;13.788;2023-06-26T02:13:10;7.68;;;7.00;;
15408;SDS011;7803;48.130;13.788;2023-06-26T02:16:12;8.20;;;7.50;;
15408;SDS011;7803;48.130;13.788;2023-06-26T02:19:14;7.97;;;7.28;;
15408;SDS011;7803;48.130;13.788;2023-06-26T02:22:21;7.95;;;7.13;;
15408;SDS011;7803;48.130;13.788;2023-06-26T02:25:23;8.70;;;7.88;;
15408;SDS011;7803;48.130;13.788;2023-06-26T02:28:27;9.05;;;8.15;;
15408;SDS011;7803;48.130;13.788;2023-06-26T02:31:31;8.00;;;7.30;;
15408;SDS011;7803;48.130;13.788;2023-06-26T02:34:33;8.63;;;7.82;;
15408;SDS011;7803;48.130;13.788;2023-06-26T02:37:34;8.40;;;7.60;;
15408;SDS011;7803;48.130;13.788;2023-06-26T02:40:37;7.80;;;7.10;;
15408;SDS011;7803;48.130;13.788;2023-06-26T02:43:40;8.52;;;7.72;;
15408;SDS011;7803;48.130;13.788;2023-06-26T02:46:42;7.50;;;6.90;;
15408;SDS011;7803;48.130;13.788;2023-06-26T02:49:44;7.32;;;6.72;;
15408;SDS011;7803;48.130;13.788;2023-06-26T02:52:46;7.97;;;7.28;;
15408;SDS011;7803;48.130;13.788;2023-06-26T02:55:52;7.82;;;7.13;;
15408;SDS011;7803;48.130;13.788;2023-06-26T02:58:55;8.10;;;7.30;;
15408;SDS011;7803;48.130;13.788;2023-06-26T03:01:58;8.00;;;7.20;;
15408;SDS011;7803;48.130;13.788;2023-06-26T03:04:59;8.07;;;7.38;;
15408;SDS011;7803;48.130;13.788;2023-06-26T03:08:03;7.70;;;7.03;;
15408;SDS011;7803;48.130;13.788;2023-06-26T03:11:05;7.75;;;7.13;;
15408;SDS011;7803;48.130;13.788;2023-06-26T03:14:08;7.70;;;7.00;;
15408;SDS011;7803;48.130;13.788;2023-06-26T03:17:10;7.53;;;6.82;;
15408;SDS011;7803;48.130;13.788;2023-06-26T03:20:12;8.15;;;7.47;;
15408;SDS011;7803;48.130;13.788;2023-06-26T03:23:15;8.18;;;7.38;;
15408;SDS011;7803;48.130;13.788;2023-06-26T03:26:17;8.27;;;7.50;;
15408;SDS011;7803;48.130;13.788;2023-06-26T03:29:20;8.00;;;7.30;;
15408;SDS011;7803;48.130;13.788;2023-06-26T03:32:22;8.52;;;7.60;;
15408;SDS011;7803;48.130;13.788;2023-06-26T03:35:24;8.10;;;7.40;;
15408;SDS011;7803;48.130;13.788;2023-06-26T03:38:26;7.80;;;7.13;;
15408;SDS011;7803;48.130;13.788;2023-06-26T03:41:28;7.93;;;7.13;;
15408;SDS011;7803;48.130;13.788;2023-06-26T03:44:32;8.63;;;7.72;;
15408;SDS011;7803;48.130;13.788;2023-06-26T03:47:34;8.70;;;7.90;;
15408;SDS011;7803;48.130;13.788;2023-06-26T03:50:36;8.18;;;7.38;;
15408;SDS011;7803;48.130;13.788;2023-06-26T03:53:38;8.73;;;7.93;;
15408;SDS011;7803;48.130;13.788;2023-06-26T03:56:40;8.20;;;7.50;;
15408;SDS011;7803;48.130;13.788;2023-06-26T03:59:43;8.40;;;7.63;;
15408;SDS011;7803;48.130;13.788;2023-06-26T04:02:45;10.25;;;8.00;;
15408;SDS011;7803;48.130;13.788;2023-06-26T04:05:47;9.73;;;8.82;;
15408;SDS011;7803;48.130;13.788;2023-06-26T04:08:49;14.13;;;11.60;;
15408;SDS011;7803;48.130;13.788;2023-06-26T04:11:51;14.18;;;11.20;;
15408;SDS011;7803;48.130;13.788;2023-06-26T04:14:55;15.20;;;12.00;;
15408;SDS011;7803;48.130;13.788;2023-06-26T04:17:57;13.27;;;11.85;;
15408;SDS011;7803;48.130;13.788;2023-06-26T04:21:07;11.27;;;10.18;;
15408;SDS011;7803;48.130;13.788;2023-06-26T04:24:09;13.25;;;11.82;;
15408;SDS011;7803;48.130;13.788;2023-06-26T04:27:11;12.13;;;10.88;;
15408;SDS011;7803;48.130;13.788;2023-06-26T04:30:16;13.60;;;10.90;;
15408;SDS011;7803;48.130;13.788;2023-06-26T04:33:18;10.68;;;9.57;;
15408;SDS011;7803;48.130;13.788;2023-06-26T04:36:20;10.68;;;9.50;;
15408;SDS011;7803;48.130;13.788;2023-06-26T04:39:22;9.77;;;8.70;;
15408;SDS011;7803;48.130;13.788;2023-06-26T04:42:25;10.40;;;9.30;;
15408;SDS011;7803;48.130;13.788;2023-06-26T04:45:29;9.60;;;8.70;;
15408;SDS011;7803;48.130;13.788;2023-06-26T04:48:31;9.52;;;8.63;;
15408;SDS011;7803;48.130;13.788;2023-06-26T04:51:33;10.00;;;8.95;;
15408;SDS011;7803;48.130;13.788;2023-06-26T04:54:40;8.95;;;8.05;;
15408;SDS011;7803;48.130;13.788;2023-06-26T04:57:42;9.45;;;8.38;;
15408;SDS011;7803;48.130;13.788;2023-06-26T05:00:45;9.10;;;8.20;;
15408;SDS011;7803;48.130;13.788;2023-06-26T05:03:47;9.60;;;8.70;;
15408;SDS011;7803;48.130;13.788;2023-06-26T05:06:49;8.95;;;8.05;;
15408;SDS011;7803;48.130;13.788;2023-06-26T05:09:51;8.88;;;7.97;;
15408;SDS011;7803;48.130;13.788;2023-06-26T05:12:53;9.45;;;8.45;;
15408;SDS011;7803;48.130;13.788;2023-06-26T05:15:56;9.00;;;8.10;;
15408;SDS011;7803;48.130;13.788;2023-06-26T05:18:58;8.70;;;7.80;;
15408;SDS011;7803;48.130;13.788;2023-06-26T05:22:01;8.20;;;7.50;;
15408;SDS011;7803;48.130;13.788;2023-06-26T05:25:08;9.07;;;8.25;;
15408;SDS011;7803;48.130;13.788;2023-06-26T05:28:17;8.60;;;7.78;;
15408;SDS011;7803;48.130;13.788;2023-06-26T05:31:29;8.57;;;7.68;;
15408;SDS011;7803;48.130;13.788;2023-06-26T05:34:33;9.05;;;8.20;;
15408;SDS011;7803;48.130;13.788;2023-06-26T05:37:35;8.73;;;7.88;;
15408;SDS011;7803;48.130;13.788;2023-06-26T05:40:38;8.82;;;7.47;;
15408;SDS011;7803;48.130;13.788;2023-06-26T05:43:41;9.32;;;8.13;;
15408;SDS011;7803;48.130;13.788;2023-06-26T05:46:45;9.73;;;8.60;;
15408;SDS011;7803;48.130;13.788;2023-06-26T05:49:47;8.55;;;7.70;;
15408;SDS011;7803;48.130;13.788;2023-06-26T05:52:49;9.07;;;8.18;;
15408;SDS011;7803;48.130;13.788;2023-06-26T05:55:52;8.95;;;7.35;;
15408;SDS011;7803;48.130;13.788;2023-06-26T05:58:54;8.23;;;7.43;;
15408;SDS011;7803;48.130;13.788;2023-06-26T06:01:59;9.07;;;8.18;;
15408;SDS011;7803;48.130;13.788;2023-06-26T06:05:00;8.30;;;7.45;;
15408;SDS011;7803;48.130;13.788;2023-06-26T06:08:03;8.48;;;7.43;;
15408;SDS011;7803;48.130;13.788;2023-06-26T06:11:05;8.40;;;7.70;;
15408;SDS011;7803;48.130;13.788;2023-06-26T06:14:07;8.88;;;8.00;;
15408;SDS011;7803;48.130;13.788;2023-06-26T06:17:10;8.32;;;7.45;;
15408;SDS011;7803;48.130;13.788;2023-06-26T06:20:12;8.27;;;7.47;;
15408;SDS011;7803;48.130;13.788;2023-06-26T06:23:14;8.90;;;8.10;;
15408;SDS011;7803;48.130;13.788;2023-06-26T06:26:16;8.40;;;7.60;;
15408;SDS011;7803;48.130;13.788;2023-06-26T06:29:18;8.65;;;7.75;;
15408;SDS011;7803;48.130;13.788;2023-06-26T06:32:22;9.02;;;8.13;;
15408;SDS011;7803;48.130;13.788;2023-06-26T06:35:23;8.80;;;8.00;;
15408;SDS011;7803;48.130;13.788;2023-06-26T06:38:26;8.50;;;7.70;;
15408;SDS011;7803;48.130;13.788;2023-06-26T06:41:28;9.02;;;8.23;;
15408;SDS011;7803;48.130;13.788;2023-06-26T06:44:30;8.68;;;7.88;;
15408;SDS011;7803;48.130;13.788;2023-06-26T06:47:33;8.40;;;7.65;;
15408;SDS011;7803;48.130;13.788;2023-06-26T06:50:35;8.80;;;7.95;;
15408;SDS011;7803;48.130;13.788;2023-06-26T06:53:37;8.18;;;7.47;;
15408;SDS011;7803;48.130;13.788;2023-06-26T06:56:39;8.13;;;7.43;;
15408;SDS011;7803;48.130;13.788;2023-06-26T06:59:41;8.52;;;7.68;;
15408;SDS011;7803;48.130;13.788;2023-06-26T07:02:45;8.10;;;7.30;;
15408;SDS011;7803;48.130;13.788;2023-06-26T07:05:47;9.10;;;8.27;;
15408;SDS011;7803;48.130;13.788;2023-06-26T07:08:49;9.20;;;8.30;;
15408;SDS011;7803;48.130;13.788;2023-06-26T07:11:51;8.98;;;8.15;;
15408;SDS011;7803;48.130;13.788;2023-06-26T07:14:54;9.13;;;8.32;;
15408;SDS011;7803;48.130;13.788;2023-06-26T07:17:58;9.27;;;8.38;;
15408;SDS011;7803;48.130;13.788;2023-06-26T07:21:00;9.23;;;8.32;;
15408;SDS011;7803;48.130;13.788;2023-06-26T07:24:02;9.32;;;8.35;;
15408;SDS011;7803;48.130;13.788;2023-06-26T07:27:04;8.85;;;8.05;;
15408;SDS011;7803;48.130;13.788;2023-06-26T07:30:06;9.18;;;8.07;;
15408;SDS011;7803;48.130;13.788;2023-06-26T07:33:11;8.70;;;7.88;;
15408;SDS011;7803;48.130;13.788;2023-06-26T07:36:13;8.63;;;7.82;;
15408;SDS011;7803;48.130;13.788;2023-06-26T07:39:15;8.77;;;7.97;;
15408;SDS011;7803;48.130;13.788;2023-06-26T07:42:17;8.90;;;8.00;;
15408;SDS011;7803;48.130;13.788;2023-06-26T07:45:19;8.73;;;7.82;;
15408;SDS011;7803;48.130;13.788;2023-06-26T07:48:23;8.27;;;7.47;;
15408;SDS011;7803;48.130;13.788;2023-06-26T07:51:25;8.73;;;7.82;;
15408;SDS011;7803;48.130;13.788;2023-06-26T07:54:27;8.48;;;7.68;;
15408;SDS011;7803;48.130;13.788;2023-06-26T07:57:29;8.60;;;7.80;;
15408;SDS011;7803;48.130;13.788;2023-06-26T08:00:32;8.25;;;7.38;;
15408;SDS011;7803;48.130;13.788;2023-06-26T08:03:35;7.85;;;7.15;;
15408;SDS011;7803;48.130;13.788;2023-06-26T08:06:37;8.10;;;7.30;;
15408;SDS011;7803;48.130;13.788;2023-06-26T08:09:40;8.20;;;7.50;;
15408;SDS011;7803;48.130;13.788;2023-06-26T08:12:42;8.05;;;7.35;;
15408;SDS011;7803;48.130;13.788;2023-06-26T08:15:45;8.00;;;7.20;;
15408;SDS011;7803;48.130;13.788;2023-06-26T08:18:48;8.68;;;7.88;;
15408;SDS011;7803;48.130;13.788;2023-06-26T08:21:50;8.10;;;7.40;;
15408;SDS011;7803;48.130;13.788;2023-06-26T08:24:53;8.40;;;7.40;;
15408;SDS011;7803;48.130;13.788;2023-06-26T08:27:55;7.90;;;7.15;;
15408;SDS011;7803;48.130;13.788;2023-06-26T08:30:57;8.90;;;8.00;;
15408;SDS011;7803;48.130;13.788;2023-06-26T08:34:01;7.85;;;7.15;;
15408;SDS011;7803;48.130;13.788;2023-06-26T08:37:03;7.78;;;7.07;;
15408;SDS011;7803;48.130;13.788;2023-06-26T08:40:06;7.47;;;6.78;;
15408;SDS011;7803;48.130;13.788;2023-06-26T08:43:08;8.10;;;7.40;;
15408;SDS011;7803;48.130;13.788;2023-06-26T08:46:11;7.72;;;6.97;;
15408;SDS011;7803;48.130;13.788;2023-06-26T08:49:16;7.60;;;6.90;;
15408;SDS011;7803;48.130;13.788;2023-06-26T08:52:22;7.97;;;7.28;;
15408;SDS011;7803;48.130;13.788;2023-06-26T08:55:25;7.93;;;7.22;;
15408;SDS011;7803;48.130;13.788;2023-06-26T08:58:29;7.70;;;6.95;;
15408;SDS011;7803;48.130;13.788;2023-06-26T09:01:31;7.82;;;7.10;;
15408;SDS011;7803;48.130;13.788;2023-06-26T09:04:35;7.90;;;7.20;;
15408;SDS011;7803;48.130;13.788;2023-06-26T09:07:38;7.78;;;7.00;;
15408;SDS011;7803;48.130;13.788;2023-06-26T09:10:40;8.00;;;7.20;;
15408;SDS011;7803;48.130;13.788;2023-06-26T09:13:42;7.90;;;7.20;;
15408;SDS011;7803;48.130;13.788;2023-06-26T09:16:47;7.93;;;7.22;;
15408;SDS011;7803;48.130;13.788;2023-06-26T09:19:51;7.63;;;6.97;;
15408;SDS011;7803;48.130;13.788;2023-06-26T09:22:53;7.32;;;6.72;;
15408;SDS011;7803;48.130;13.788;2023-06-26T09:25:55;7.93;;;7.22;;
15408;SDS011;7803;48.130;13.788;2023-06-26T09:28:58;7.88;;;7.18;;
15408;SDS011;7803;48.130;13.788;2023-06-26T09:32:00;7.80;;;7.10;;
15408;SDS011;7803;48.130;13.788;2023-06-26T09:35:04;7.82;;;7.13;;
15408;SDS011;7803;48.130;13.788;2023-06-26T09:38:06;8.00;;;7.20;;
15408;SDS011;7803;48.130;13.788;2023-06-26T09:41:08;7.82;;;7.13;;
15408;SDS011;7803;48.130;13.788;2023-06-26T09:44:11;8.30;;;7.50;;
15408;SDS011;7803;48.130;13.788;2023-06-26T09:47:15;7.78;;;7.00;;
15408;SDS011;7803;48.130;13.788;2023-06-26T09:50:23;8.30;;;7.20;;
15408;SDS011;7803;48.130;13.788;2023-06-26T09:53:27;7.72;;;6.93;;
15408;SDS011;7803;48.130;13.788;2023-06-26T09:56:29;8.52;;;7.22;;
15408;SDS011;7803;48.130;13.788;2023-06-26T09:59:32;10.13;;;7.75;;
15408;SDS011;7803;48.130;13.788;2023-06-26T10:02:35;9.60;;;7.28;;
15408;SDS011;7803;48.130;13.788;2023-06-26T10:05:39;8.60;;;7.10;;
15408;SDS011;7803;48.130;13.788;2023-06-26T10:08:42;7.82;;;7.00;;
15408;SDS011;7803;48.130;13.788;2023-06-26T10:11:45;9.13;;;6.78;;
15408;SDS011;7803;48.130;13.788;2023-06-26T10:14:50;7.97;;;7.18;;
15408;SDS011;7803;48.130;13.788;2023-06-26T10:17:53;9.93;;;7.13;;
15408;SDS011;7803;48.130;13.788;2023-06-26T10:20:59;8.25;;;6.50;;
15408;SDS011;7803;48.130;13.788;2023-06-26T10:24:03;7.53;;;6.82;;
15408;SDS011;7803;48.130;13.788;2023-06-26T10:27:08;8.77;;;7.20;;
15408;SDS011;7803;48.130;13.788;2023-06-26T10:30:18;8.10;;;7.03;;
15408;SDS011;7803;48.130;13.788;2023-06-26T10:33:23;8.57;;;6.97;;
15408;SDS011;7803;48.130;13.788;2023-06-26T10:36:31;8.05;;;7.30;;
15408;SDS011;7803;48.130;13.788;2023-06-26T10:39:45;8.45;;;7.13;;
15408;SDS011;7803;48.130;13.788;2023-06-26T10:42:49;8.88;;;7.97;;
15408;SDS011;7803;48.130;13.788;2023-06-26T10:45:51;9.88;;;7.28;;
15408;SDS011;7803;48.130;13.788;2023-06-26T10:48:56;8.73;;;7.47;;
15408;SDS011;7803;48.130;13.788;2023-06-26T10:52:01;8.50;;;7.55;;
15408;SDS011;7803;48.130;13.788;2023-06-26T10:55:04;8.32;;;7.53;;
15408;SDS011;7803;48.130;13.788;2023-06-26T11:01:30;8.45;;;7.65;;
15408;SDS011;7803;48.130;13.788;2023-06-26T11:04:43;9.32;;;7.70;;
15408;SDS011;7803;48.130;13.788;2023-06-26T11:11:10;8.40;;;7.57;;
15408;SDS011;7803;48.130;13.788;2023-06-26T11:14:12;8.20;;;7.20;;
15408;SDS011;7803;48.130;13.788;2023-06-26T11:17:18;9.00;;;7.38;;
15408;SDS011;7803;48.130;13.788;2023-06-26T11:20:20;8.15;;;7.05;;
15408;SDS011;7803;48.130;13.788;2023-06-26T11:23:23;7.80;;;7.05;;
15408;SDS011;7803;48.130;13.788;2023-06-26T11:26:26;8.00;;;7.20;;
15408;SDS011;7803;48.130;13.788;2023-06-26T11:29:29;7.95;;;7.15;;
15408;SDS011;7803;48.130;13.788;2023-06-26T11:32:31;7.95;;;7.15;;
15408;SDS011;7803;48.130;13.788;2023-06-26T11:35:33;8.27;;;6.72;;
15408;SDS011;7803;48.130;13.788;2023-06-26T11:38:38;7.78;;;7.00;;
15408;SDS011;7803;48.130;13.788;2023-06-26T11:41:40;7.70;;;7.00;;
15408;SDS011;7803;48.130;13.788;2023-06-26T11:44:42;7.32;;;6.72;;
15408;SDS011;7803;48.130;13.788;2023-06-26T11:47:45;7.65;;;6.85;;
15408;SDS011;7803;48.130;13.788;2023-06-26T11:50:50;7.80;;;6.90;;
15408;SDS011;7803;48.130;13.788;2023-06-26T11:53:54;7.78;;;7.07;;
15408;SDS011;7803;48.130;13.788;2023-06-26T11:56:56;7.80;;;7.10;;
15408;SDS011;7803;48.130;13.788;2023-06-26T12:00:09;7.80;;;7.10;;
15408;SDS011;7803;48.130;13.788;2023-06-26T12:03:12;7.60;;;6.90;;
15408;SDS011;7803;48.130;13.788;2023-06-26T12:06:14;7.50;;;6.80;;
15408;SDS011;7803;48.130;13.788;2023-06-26T12:09:18;7.30;;;6.60;;
15408;SDS011;7803;48.130;13.788;2023-06-26T12:12:21;8.05;;;7.22;;
15408;SDS011;7803;48.130;13.788;2023-06-26T12:15:23;7.65;;;6.95;;
15408;SDS011;7803;48.130;13.788;2023-06-26T12:18:25;8.00;;;7.28;;
15408;SDS011;7803;48.130;13.788;2023-06-26T12:21:45;7.50;;;6.80;;
15408;SDS011;7803;48.130;13.788;2023-06-26T12:24:56;7.32;;;6.63;;
15408;SDS011;7803;48.130;13.788;2023-06-26T12:27:58;8.23;;;7.43;;
15408;SDS011;7803;48.130;13.788;2023-06-26T12:31:13;7.10;;;6.40;;
15408;SDS011;7803;48.130;13.788;2023-06-26T12:34:18;7.07;;;6.43;;
15408;SDS011;7803;48.130;13.788;2023-06-26T12:37:21;7.80;;;7.07;;
15408;SDS011;7803;48.130;13.788;2023-06-26T12:40:24;7.40;;;6.70;;
15408;SDS011;7803;48.130;13.788;2023-06-26T12:43:26;7.22;;;6.53;;
15408;SDS011;7803;48.130;13.788;2023-06-26T12:46:34;8.35;;;7.40;;
15408;SDS011;7803;48.130;13.788;2023-06-26T12:49:37;7.57;;;6.85;;
15408;SDS011;7803;48.130;13.788;2023-06-26T12:52:39;7.32;;;6.72;;
15408;SDS011;7803;48.130;13.788;2023-06-26T12:55:42;7.43;;;6.72;;
15408;SDS011;7803;48.130;13.788;2023-06-26T12:58:44;7.20;;;6.50;;
15408;SDS011;7803;48.130;13.788;2023-06-26T13:01:46;7.68;;;6.93;;
15408;SDS011;7803;48.130;13.788;2023-06-26T13:04:49;7.07;;;6.47;;
15408;SDS011;7803;48.130;13.788;2023-06-26T13:07:50;7.30;;;6.70;;
15408;SDS011;7803;48.130;13.788;2023-06-26T13:10:55;7.20;;;6.50;;
15408;SDS011;7803;48.130;13.788;2023-06-26T13:13:57;7.72;;;7.03;;
15408;SDS011;7803;48.130;13.788;2023-06-26T13:16:59;7.30;;;6.70;;
15408;SDS011;7803;48.130;13.788;2023-06-26T13:20:02;7.63;;;6.93;;
15408;SDS011;7803;48.130;13.788;2023-06-26T13:23:06;7.38;;;6.68;;
15408;SDS011;7803;48.130;13.788;2023-06-26T13:26:09;7.20;;;6.60;;
15408;SDS011;7803;48.130;13.788;2023-06-26T13:29:12;7.03;;;6.43;;
15408;SDS011;7803;48.130;13.788;2023-06-26T13:32:16;7.40;;;6.50;;
15408;SDS011;7803;48.130;13.788;2023-06-26T13:35:17;7.07;;;6.38;;
15408;SDS011;7803;48.130;13.788;2023-06-26T13:38:20;6.80;;;6.20;;
15408;SDS011;7803;48.130;13.788;2023-06-26T13:41:25;7.05;;;6.43;;
15408;SDS011;7803;48.130;13.788;2023-06-26T13:44:28;7.60;;;6.85;;
15408;SDS011;7803;48.130;13.788;2023-06-26T13:47:30;8.18;;;6.70;;
15408;SDS011;7803;48.130;13.788;2023-06-26T13:50:34;6.88;;;6.18;;
15408;SDS011;7803;48.130;13.788;2023-06-26T13:53:36;6.85;;;6.25;;
15408;SDS011;7803;48.130;13.788;2023-06-26T13:56:40;7.47;;;6.78;;
15408;SDS011;7803;48.130;13.788;2023-06-26T13:59:41;7.43;;;6.70;;
15408;SDS011;7803;48.130;13.788;2023-06-26T14:02:43;9.40;;;7.32;;
15408;SDS011;7803;48.130;13.788;2023-06-26T14:05:45;12.40;;;7.40;;
15408;SDS011;7803;48.130;13.788;2023-06-26T14:08:47;79.28;;;56.28;;
15408;SDS011;7803;48.130;13.788;2023-06-26T14:11:51;32.75;;;26.88;;
15408;SDS011;7803;48.130;13.788;2023-06-26T14:14:53;23.23;;;19.77;;
15408;SDS011;7803;48.130;13.788;2023-06-26T14:17:55;19.15;;;15.63;;
15408;SDS011;7803;48.130;13.788;2023-06-26T14:20:57;17.38;;;14.70;;
15408;SDS011;7803;48.130;13.788;2023-06-26T14:23:59;15.65;;;13.60;;
15408;SDS011;7803;48.130;13.788;2023-06-26T14:27:04;15.23;;;13.38;;
15408;SDS011;7803;48.130;13.788;2023-06-26T14:30:06;14.02;;;12.50;;
15408;SDS011;7803;48.130;13.788;2023-06-26T14:33:09;13.45;;;12.05;;
15408;SDS011;7803;48.130;13.788;2023-06-26T14:36:11;13.73;;;12.32;;
15408;SDS011;7803;48.130;13.788;2023-06-26T14:39:13;13.32;;;11.27;;
15408;SDS011;7803;48.130;13.788;2023-06-26T14:42:17;11.88;;;10.63;;
15408;SDS011;7803;48.130;13.788;2023-06-26T14:45:19;12.82;;;11.15;;
15408;SDS011;7803;48.130;13.788;2023-06-26T14:48:21;12.90;;;11.07;;
15408;SDS011;7803;48.130;13.788;2023-06-26T14:51:23;13.65;;;11.52;;
15408;SDS011;7803;48.130;13.788;2023-06-26T14:54:26;11.77;;;10.57;;
15408;SDS011;7803;48.130;13.788;2023-06-26T14:57:29;11.10;;;9.98;;
15408;SDS011;7803;48.130;13.788;2023-06-26T15:00:31;11.38;;;10.27;;
15408;SDS011;7803;48.130;13.788;2023-06-26T15:03:33;11.68;;;10.38;;
15408;SDS011;7803;48.130;13.788;2023-06-26T15:06:35;11.38;;;10.27;;
15408;SDS011;7803;48.130;13.788;2023-06-26T15:09:38;11.68;;;10.05;;
15408;SDS011;7803;48.130;13.788;2023-06-26T15:12:41;11.15;;;9.95;;
15408;SDS011;7803;48.130;13.788;2023-06-26T15:15:43;10.73;;;9.65;;
15408;SDS011;7803;48.130;13.788;2023-06-26T15:18:45;10.48;;;9.40;;
15408;SDS011;7803;48.130;13.788;2023-06-26T15:21:47;10.40;;;9.40;;
15408;SDS011;7803;48.130;13.788;2023-06-26T15:24:49;10.98;;;9.73;;
15408;SDS011;7803;48.130;13.788;2023-06-26T15:27:52;10.95;;;9.85;;
15408;SDS011;7803;48.130;13.788;2023-06-26T15:30:54;10.38;;;9.38;;
15408;SDS011;7803;48.130;13.788;2023-06-26T15:33:56;10.13;;;9.02;;
15408;SDS011;7803;48.130;13.788;2023-06-26T15:36:58;10.27;;;9.27;;
15408;SDS011;7803;48.130;13.788;2023-06-26T15:40:00;10.32;;;9.32;;
15408;SDS011;7803;48.130;13.788;2023-06-26T15:43:03;9.70;;;8.80;;
15408;SDS011;7803;48.130;13.788;2023-06-26T15:46:05;9.95;;;8.95;;
15408;SDS011;7803;48.130;13.788;2023-06-26T15:49:07;9.10;;;8.20;;
15408;SDS011;7803;48.130;13.788;2023-06-26T15:52:09;9.93;;;8.68;;
15408;SDS011;7803;48.130;13.788;2023-06-26T15:55:11;9.82;;;8.82;;
15408;SDS011;7803;48.130;13.788;2023-06-26T15:58:15;9.52;;;8.63;;
15408;SDS011;7803;48.130;13.788;2023-06-26T16:01:16;10.55;;;8.57;;
15408;SDS011;7803;48.130;13.788;2023-06-26T16:04:18;9.90;;;8.90;;
15408;SDS011;7803;48.130;13.788;2023-06-26T16:07:21;9.23;;;8.32;;
15408;SDS011;7803;48.130;13.788;2023-06-26T16:10:23;9.38;;;8.48;;
15408;SDS011;7803;48.130;13.788;2023-06-26T16:13:28;9.55;;;8.63;;
15408;SDS011;7803;48.130;13.788;2023-06-26T16:16:30;9.20;;;8.30;;
15408;SDS011;7803;48.130;13.788;2023-06-26T16:19:32;9.32;;;8.32;;
15408;SDS011;7803;48.130;13.788;2023-06-26T16:22:34;9.20;;;8.30;;
15408;SDS011;7803;48.130;13.788;2023-06-26T16:25:36;9.65;;;8.27;;
15408;SDS011;7803;48.130;13.788;2023-06-26T16:28:39;10.38;;;8.02;;
15408;SDS011;7803;48.130;13.788;2023-06-26T16:31:41;9.13;;;8.23;;
15408;SDS011;7803;48.130;13.788;2023-06-26T16:34:43;9.13;;;8.25;;
15408;SDS011;7803;48.130;13.788;2023-06-26T16:37:45;8.82;;;8.02;;
15408;SDS011;7803;48.130;13.788;2023-06-26T16:40:47;8.35;;;7.55;;
15408;SDS011;7803;48.130;13.788;2023-06-26T16:43:50;8.75;;;7.95;;
15408;SDS011;7803;48.130;13.788;2023-06-26T16:46:53;8.60;;;7.80;;
15408;SDS011;7803;48.130;13.788;2023-06-26T16:49:56;9.25;;;8.35;;
15408;SDS011;7803;48.130;13.788;2023-06-26T16:52:58;9.13;;;8.23;;
15408;SDS011;7803;48.130;13.788;2023-06-26T16:56:00;8.95;;;8.13;;
15408;SDS011;7803;48.130;13.788;2023-06-26T16:59:04;8.70;;;7.90;;
15408;SDS011;7803;48.130;13.788;2023-06-26T17:02:06;9.00;;;8.10;;
15408;SDS011;7803;48.130;13.788;2023-06-26T17:05:08;9.38;;;8.48;;
15408;SDS011;7803;48.130;13.788;2023-06-26T17:08:11;8.70;;;7.90;;
15408;SDS011;7803;48.130;13.788;2023-06-26T17:11:13;8.43;;;7.63;;
15408;SDS011;7803;48.130;13.788;2023-06-26T17:14:16;9.27;;;8.48;;
15408;SDS011;7803;48.130;13.788;2023-06-26T17:17:18;8.90;;;7.95;;
15408;SDS011;7803;48.130;13.788;2023-06-26T17:20:22;8.85;;;7.97;;
15408;SDS011;7803;48.130;13.788;2023-06-26T17:23:24;9.63;;;7.80;;
15408;SDS011;7803;48.130;13.788;2023-06-26T17:26:26;8.43;;;7.55;;
15408;SDS011;7803;48.130;13.788;2023-06-26T17:29:30;8.90;;;7.97;;
15408;SDS011;7803;48.130;13.788;2023-06-26T17:32:32;8.55;;;7.70;;
15408;SDS011;7803;48.130;13.788;2023-06-26T17:35:34;9.02;;;8.10;;
15408;SDS011;7803;48.130;13.788;2023-06-26T17:38:38;9.10;;;8.13;;
15408;SDS011;7803;48.130;13.788;2023-06-26T17:41:41;10.15;;;8.25;;
15408;SDS011;7803;48.130;13.788;2023-06-26T17:44:45;11.75;;;8.77;;
15408;SDS011;7803;48.130;13.788;2023-06-26T17:47:47;15.27;;;9.80;;
15408;SDS011;7803;48.130;13.788;2023-06-26T17:50:49;15.43;;;9.32;;
15408;SDS011;7803;48.130;13.788;2023-06-26T17:53:51;18.10;;;10.10;;
15408;SDS011;7803;48.130;13.788;2023-06-26T17:56:53;17.05;;;10.30;;
15408;SDS011;7803;48.130;13.788;2023-06-26T17:59:56;20.83;;;11.85;;
15408;SDS011;7803;48.130;13.788;2023-06-26T18:02:58;16.90;;;10.50;;
15408;SDS011;7803;48.130;13.788;2023-06-26T18:06:00;20.15;;;11.20;;
15408;SDS011;7803;48.130;13.788;2023-06-26T18:09:02;23.63;;;12.07;;
15408;SDS011;7803;48.130;13.788;2023-06-26T18:12:05;36.50;;;14.93;;
15408;SDS011;7803;48.130;13.788;2023-06-26T18:15:09;41.92;;;16.13;;
15408;SDS011;7803;48.130;13.788;2023-06-26T18:18:11;32.65;;;14.38;;
15408;SDS011;7803;48.130;13.788;2023-06-26T18:21:15;31.08;;;14.48;;
15408;SDS011;7803;48.130;13.788;2023-06-26T18:24:17;24.58;;;12.95;;